sensor_id;sensor_type;location;lat;lon;timestamp;pressure;altitude;pressure_sealevel;temperature;humidity
33845;BME280;20145;43.118;25.694;2022-09-17T00:00:39;98448.22;;;20.91;76.28
33845;BME280;20145;43.118;25.694;2022-09-17T00:03:06;98454.59;;;21.00;76.76
33845;BME280;20145;43.118;25.694;2022-09-17T00:05:33;98457.56;;;20.95;75.09
33845;BME280;20145;43.118;25.694;2022-09-17T00:07:58;98464.47;;;20.96;75.44
33845;BME280;20145;43.118;25.694;2022-09-17T00:10:24;98449.94;;;21.03;73.90
33845;BME280;20145;43.118;25.694;2022-09-17T00:12:50;98461.94;;;21.07;74.08
33845;BME280;20145;43.118;25.694;2022-09-17T00:15:16;98461.09;;;21.07;73.99
33845;BME280;20145;43.118;25.694;2022-09-17T00:17:42;98468.44;;;21.14;75.27
33845;BME280;20145;43.118;25.694;2022-09-17T00:20:09;98460.94;;;21.21;74.80
33845;BME280;20145;43.118;25.694;2022-09-17T00:22:36;98448.78;;;21.20;73.68
33845;BME280;20145;43.118;25.694;2022-09-17T00:25:03;98454.19;;;21.30;73.60
33845;BME280;20145;43.118;25.694;2022-09-17T00:27:29;98457.22;;;21.36;72.22
33845;BME280;20145;43.118;25.694;2022-09-17T00:29:55;98444.88;;;21.38;72.93
33845;BME280;20145;43.118;25.694;2022-09-17T00:32:21;98458.78;;;21.52;73.77
33845;BME280;20145;43.118;25.694;2022-09-17T00:34:48;98440.72;;;21.47;73.01
33845;BME280;20145;43.118;25.694;2022-09-17T00:37:17;98430.75;;;21.52;72.26
33845;BME280;20145;43.118;25.694;2022-09-17T00:39:43;98432.22;;;21.56;70.74
33845;BME280;20145;43.118;25.694;2022-09-17T00:42:11;98426.38;;;21.64;70.84
33845;BME280;20145;43.118;25.694;2022-09-17T00:44:47;98421.66;;;21.80;70.67
33845;BME280;20145;43.118;25.694;2022-09-17T00:48:13;98417.41;;;21.91;71.33
33845;BME280;20145;43.118;25.694;2022-09-17T00:50:39;98425.84;;;21.83;68.99
33845;BME280;20145;43.118;25.694;2022-09-17T00:53:13;98453.91;;;21.82;69.76
33845;BME280;20145;43.118;25.694;2022-09-17T00:55:44;98447.38;;;21.88;69.63
33845;BME280;20145;43.118;25.694;2022-09-17T00:58:11;98441.81;;;22.04;71.00
33845;BME280;20145;43.118;25.694;2022-09-17T01:00:39;98443.97;;;22.10;69.88
33845;BME280;20145;43.118;25.694;2022-09-17T01:03:05;98434.31;;;22.11;68.46
33845;BME280;20145;43.118;25.694;2022-09-17T01:05:46;98431.34;;;22.15;67.99
33845;BME280;20145;43.118;25.694;2022-09-17T01:21:56;98395.09;;;21.61;73.84
33845;BME280;20145;43.118;25.694;2022-09-17T01:32:34;98382.72;;;21.02;75.78
33845;BME280;20145;43.118;25.694;2022-09-17T01:35:19;98404.59;;;21.14;75.65
33845;BME280;20145;43.118;25.694;2022-09-17T01:38:02;98408.28;;;21.11;75.66
33845;BME280;20145;43.118;25.694;2022-09-17T01:43:30;98385.25;;;21.04;77.40
33845;BME280;20145;43.118;25.694;2022-09-17T01:46:00;98370.78;;;20.98;77.44
33845;BME280;20145;43.118;25.694;2022-09-17T01:48:32;98369.91;;;20.98;78.25
33845;BME280;20145;43.118;25.694;2022-09-17T01:51:10;98363.84;;;20.97;77.76
33845;BME280;20145;43.118;25.694;2022-09-17T01:53:47;98371.00;;;20.95;77.42
33845;BME280;20145;43.118;25.694;2022-09-17T01:56:19;98385.78;;;20.96;77.48
33845;BME280;20145;43.118;25.694;2022-09-17T01:58:55;98391.75;;;20.98;78.19
33845;BME280;20145;43.118;25.694;2022-09-17T02:01:23;98383.44;;;21.04;77.41
33845;BME280;20145;43.118;25.694;2022-09-17T02:04:20;98368.31;;;21.08;77.10
33845;BME280;20145;43.118;25.694;2022-09-17T02:06:54;98353.81;;;20.91;76.95
33845;BME280;20145;43.118;25.694;2022-09-17T02:09:28;98361.44;;;20.94;76.64
33845;BME280;20145;43.118;25.694;2022-09-17T02:11:58;98350.88;;;20.83;77.45
33845;BME280;20145;43.118;25.694;2022-09-17T02:17:43;98354.03;;;20.75;76.29
33845;BME280;20145;43.118;25.694;2022-09-17T02:20:11;98357.78;;;20.84;77.87
33845;BME280;20145;43.118;25.694;2022-09-17T02:22:42;98352.78;;;20.81;75.89
33845;BME280;20145;43.118;25.694;2022-09-17T02:25:30;98342.69;;;20.87;76.24
33845;BME280;20145;43.118;25.694;2022-09-17T02:28:01;98332.22;;;20.87;75.20
33845;BME280;20145;43.118;25.694;2022-09-17T02:30:29;98330.75;;;20.83;76.23
33845;BME280;20145;43.118;25.694;2022-09-17T02:32:56;98332.31;;;20.86;77.44
33845;BME280;20145;43.118;25.694;2022-09-17T02:35:22;98332.44;;;20.84;76.71
33845;BME280;20145;43.118;25.694;2022-09-17T02:37:48;98327.94;;;20.74;76.99
33845;BME280;20145;43.118;25.694;2022-09-17T02:40:16;98332.25;;;20.75;77.72
33845;BME280;20145;43.118;25.694;2022-09-17T02:45:57;98338.97;;;20.66;78.17
33845;BME280;20145;43.118;25.694;2022-09-17T02:54:17;98364.28;;;20.91;76.70
33845;BME280;20145;43.118;25.694;2022-09-17T03:00:00;98341.97;;;20.85;77.79
33845;BME280;20145;43.118;25.694;2022-09-17T03:02:44;98336.81;;;20.84;77.66
33845;BME280;20145;43.118;25.694;2022-09-17T03:05:12;98322.78;;;20.85;77.80
33845;BME280;20145;43.118;25.694;2022-09-17T03:07:39;98312.84;;;20.77;78.52
33845;BME280;20145;43.118;25.694;2022-09-17T03:10:05;98295.47;;;20.63;77.43
33845;BME280;20145;43.118;25.694;2022-09-17T03:12:31;98279.66;;;20.65;78.20
33845;BME280;20145;43.118;25.694;2022-09-17T03:14:57;98284.31;;;20.72;78.59
33845;BME280;20145;43.118;25.694;2022-09-17T03:17:22;98279.41;;;20.68;77.36
33845;BME280;20145;43.118;25.694;2022-09-17T03:19:48;98273.22;;;20.69;76.52
33845;BME280;20145;43.118;25.694;2022-09-17T03:22:13;98279.97;;;20.60;74.94
33845;BME280;20145;43.118;25.694;2022-09-17T03:24:39;98279.41;;;20.68;76.95
33845;BME280;20145;43.118;25.694;2022-09-17T03:27:05;98288.22;;;20.67;76.43
33845;BME280;20145;43.118;25.694;2022-09-17T03:29:30;98292.41;;;20.69;78.05
33845;BME280;20145;43.118;25.694;2022-09-17T03:31:56;98274.41;;;20.52;77.78
33845;BME280;20145;43.118;25.694;2022-09-17T03:34:22;98288.78;;;20.59;78.00
33845;BME280;20145;43.118;25.694;2022-09-17T03:36:48;98270.53;;;20.45;77.66
33845;BME280;20145;43.118;25.694;2022-09-17T03:39:14;98232.31;;;20.30;77.73
33845;BME280;20145;43.118;25.694;2022-09-17T03:41:39;98249.50;;;20.34;76.62
33845;BME280;20145;43.118;25.694;2022-09-17T03:44:06;98231.91;;;20.23;77.91
33845;BME280;20145;43.118;25.694;2022-09-17T03:46:31;98247.00;;;20.19;78.03
33845;BME280;20145;43.118;25.694;2022-09-17T03:48:57;98237.88;;;20.25;78.24
33845;BME280;20145;43.118;25.694;2022-09-17T03:51:23;98233.63;;;20.11;77.52
33845;BME280;20145;43.118;25.694;2022-09-17T03:53:49;98223.13;;;20.11;77.39
33845;BME280;20145;43.118;25.694;2022-09-17T03:56:14;98214.88;;;20.04;77.40
33845;BME280;20145;43.118;25.694;2022-09-17T03:58:40;98209.03;;;20.01;78.31
33845;BME280;20145;43.118;25.694;2022-09-17T04:01:06;98221.81;;;19.93;77.71
33845;BME280;20145;43.118;25.694;2022-09-17T04:03:31;98225.59;;;19.89;78.22
33845;BME280;20145;43.118;25.694;2022-09-17T04:05:57;98227.25;;;19.90;80.05
33845;BME280;20145;43.118;25.694;2022-09-17T04:08:23;98218.78;;;19.86;77.52
33845;BME280;20145;43.118;25.694;2022-09-17T04:10:49;98204.63;;;19.89;80.16
33845;BME280;20145;43.118;25.694;2022-09-17T04:13:16;98214.16;;;20.02;77.54
33845;BME280;20145;43.118;25.694;2022-09-17T04:15:43;98223.34;;;20.08;78.03
33845;BME280;20145;43.118;25.694;2022-09-17T04:18:09;98222.91;;;20.14;77.12
33845;BME280;20145;43.118;25.694;2022-09-17T04:20:35;98213.25;;;20.27;77.44
33845;BME280;20145;43.118;25.694;2022-09-17T04:23:01;98218.75;;;20.48;76.36
33845;BME280;20145;43.118;25.694;2022-09-17T04:25:26;98209.44;;;20.57;75.54
33845;BME280;20145;43.118;25.694;2022-09-17T04:27:53;98207.47;;;20.72;75.67
33845;BME280;20145;43.118;25.694;2022-09-17T04:30:19;98200.47;;;20.84;75.46
33845;BME280;20145;43.118;25.694;2022-09-17T04:32:45;98193.28;;;20.99;75.28
33845;BME280;20145;43.118;25.694;2022-09-17T04:35:11;98205.00;;;21.17;74.86
33845;BME280;20145;43.118;25.694;2022-09-17T04:37:37;98204.09;;;21.29;73.78
33845;BME280;20145;43.118;25.694;2022-09-17T04:40:04;98217.13;;;21.42;73.69
33845;BME280;20145;43.118;25.694;2022-09-17T04:42:30;98222.88;;;21.47;72.47
33845;BME280;20145;43.118;25.694;2022-09-17T04:44:55;98214.56;;;21.53;73.64
33845;BME280;20145;43.118;25.694;2022-09-17T04:47:22;98229.72;;;21.61;73.08
33845;BME280;20145;43.118;25.694;2022-09-17T04:49:48;98233.41;;;21.58;73.10
33845;BME280;20145;43.118;25.694;2022-09-17T04:52:13;98236.50;;;21.64;74.29
33845;BME280;20145;43.118;25.694;2022-09-17T04:54:39;98236.75;;;21.72;74.06
33845;BME280;20145;43.118;25.694;2022-09-17T04:57:05;98225.66;;;21.68;74.03
33845;BME280;20145;43.118;25.694;2022-09-17T04:59:30;98229.38;;;21.77;74.42
33845;BME280;20145;43.118;25.694;2022-09-17T05:01:56;98236.44;;;21.88;74.62
33845;BME280;20145;43.118;25.694;2022-09-17T05:04:23;98214.09;;;21.93;74.94
33845;BME280;20145;43.118;25.694;2022-09-17T05:06:49;98219.94;;;22.08;73.22
33845;BME280;20145;43.118;25.694;2022-09-17T05:09:14;98213.88;;;22.19;72.49
33845;BME280;20145;43.118;25.694;2022-09-17T05:11:40;98217.69;;;22.37;71.07
33845;BME280;20145;43.118;25.694;2022-09-17T05:14:06;98217.19;;;22.43;71.96
33845;BME280;20145;43.118;25.694;2022-09-17T05:16:31;98210.09;;;22.55;70.68
33845;BME280;20145;43.118;25.694;2022-09-17T05:18:57;98210.16;;;22.76;70.99
33845;BME280;20145;43.118;25.694;2022-09-17T05:21:22;98214.41;;;22.88;70.21
33845;BME280;20145;43.118;25.694;2022-09-17T05:23:48;98219.09;;;22.96;69.70
33845;BME280;20145;43.118;25.694;2022-09-17T05:26:14;98217.31;;;23.18;70.24
33845;BME280;20145;43.118;25.694;2022-09-17T05:28:40;98216.22;;;23.41;71.21
33845;BME280;20145;43.118;25.694;2022-09-17T05:31:06;98217.56;;;23.56;69.38
33845;BME280;20145;43.118;25.694;2022-09-17T05:33:31;98203.50;;;23.67;68.91
33845;BME280;20145;43.118;25.694;2022-09-17T05:35:57;98196.94;;;23.82;69.32
33845;BME280;20145;43.118;25.694;2022-09-17T05:38:24;98207.16;;;24.07;67.49
33845;BME280;20145;43.118;25.694;2022-09-17T05:40:50;98206.38;;;24.25;66.72
33845;BME280;20145;43.118;25.694;2022-09-17T05:43:15;98213.38;;;24.46;65.30
33845;BME280;20145;43.118;25.694;2022-09-17T05:45:41;98209.25;;;24.53;64.75
33845;BME280;20145;43.118;25.694;2022-09-17T05:48:11;98208.00;;;24.77;63.98
33845;BME280;20145;43.118;25.694;2022-09-17T05:50:37;98203.72;;;24.95;63.73
33845;BME280;20145;43.118;25.694;2022-09-17T05:53:13;98184.56;;;25.03;62.37
33845;BME280;20145;43.118;25.694;2022-09-17T05:55:39;98194.69;;;25.36;61.95
33845;BME280;20145;43.118;25.694;2022-09-17T05:58:23;98189.38;;;25.46;60.71
33845;BME280;20145;43.118;25.694;2022-09-17T06:00:48;98184.53;;;25.42;60.80
33845;BME280;20145;43.118;25.694;2022-09-17T06:03:16;98184.25;;;25.45;61.35
33845;BME280;20145;43.118;25.694;2022-09-17T06:05:44;98193.28;;;25.42;61.34
33845;BME280;20145;43.118;25.694;2022-09-17T06:08:16;98200.25;;;25.14;61.30
33845;BME280;20145;43.118;25.694;2022-09-17T06:10:42;98211.66;;;25.14;61.22
33845;BME280;20145;43.118;25.694;2022-09-17T06:13:07;98194.84;;;25.15;62.13
33845;BME280;20145;43.118;25.694;2022-09-17T06:15:33;98211.47;;;25.45;61.58
33845;BME280;20145;43.118;25.694;2022-09-17T06:17:58;98214.84;;;25.28;61.71
33845;BME280;20145;43.118;25.694;2022-09-17T06:20:24;98202.84;;;25.43;60.81
33845;BME280;20145;43.118;25.694;2022-09-17T06:22:57;98217.41;;;25.67;60.31
33845;BME280;20145;43.118;25.694;2022-09-17T06:25:23;98221.16;;;25.84;59.83
33845;BME280;20145;43.118;25.694;2022-09-17T06:27:49;98220.47;;;26.09;59.77
33845;BME280;20145;43.118;25.694;2022-09-17T06:30:14;98222.38;;;26.44;59.54
33845;BME280;20145;43.118;25.694;2022-09-17T06:32:40;98219.34;;;26.67;58.24
33845;BME280;20145;43.118;25.694;2022-09-17T06:35:06;98227.13;;;26.41;57.73
33845;BME280;20145;43.118;25.694;2022-09-17T06:37:32;98232.22;;;25.97;59.77
33845;BME280;20145;43.118;25.694;2022-09-17T06:39:58;98226.66;;;26.28;59.23
33845;BME280;20145;43.118;25.694;2022-09-17T06:42:25;98221.38;;;26.28;59.23
33845;BME280;20145;43.118;25.694;2022-09-17T06:44:51;98235.91;;;26.41;59.11
33845;BME280;20145;43.118;25.694;2022-09-17T06:47:16;98241.03;;;26.53;58.89
33845;BME280;20145;43.118;25.694;2022-09-17T06:49:42;98245.03;;;26.57;58.68
33845;BME280;20145;43.118;25.694;2022-09-17T06:52:08;98253.97;;;26.56;59.14
33845;BME280;20145;43.118;25.694;2022-09-17T06:54:34;98242.47;;;26.65;59.46
33845;BME280;20145;43.118;25.694;2022-09-17T06:57:00;98219.88;;;26.70;57.47
33845;BME280;20145;43.118;25.694;2022-09-17T06:59:25;98241.16;;;26.97;57.56
33845;BME280;20145;43.118;25.694;2022-09-17T07:01:52;98239.41;;;27.23;56.07
33845;BME280;20145;43.118;25.694;2022-09-17T07:04:18;98252.66;;;27.23;56.24
33845;BME280;20145;43.118;25.694;2022-09-17T07:06:44;98255.88;;;27.35;55.66
33845;BME280;20145;43.118;25.694;2022-09-17T07:09:10;98254.34;;;27.50;56.22
33845;BME280;20145;43.118;25.694;2022-09-17T07:11:37;98252.91;;;27.56;55.31
33845;BME280;20145;43.118;25.694;2022-09-17T07:14:02;98264.97;;;27.76;55.76
33845;BME280;20145;43.118;25.694;2022-09-17T07:16:29;98251.41;;;27.53;55.32
33845;BME280;20145;43.118;25.694;2022-09-17T07:18:57;98257.31;;;27.47;56.05
33845;BME280;20145;43.118;25.694;2022-09-17T07:21:22;98252.09;;;27.55;55.47
33845;BME280;20145;43.118;25.694;2022-09-17T07:23:50;98252.69;;;27.75;55.36
33845;BME280;20145;43.118;25.694;2022-09-17T07:26:16;98253.97;;;27.89;54.21
33845;BME280;20145;43.118;25.694;2022-09-17T07:28:42;98249.28;;;28.09;52.54
33845;BME280;20145;43.118;25.694;2022-09-17T07:31:09;98245.41;;;28.38;54.51
33845;BME280;20145;43.118;25.694;2022-09-17T07:33:36;98253.00;;;28.67;53.22
33845;BME280;20145;43.118;25.694;2022-09-17T07:36:07;98240.75;;;28.99;53.81
33845;BME280;20145;43.118;25.694;2022-09-17T07:38:34;98244.31;;;29.24;51.29
33845;BME280;20145;43.118;25.694;2022-09-17T07:41:03;98239.31;;;29.12;50.79
33845;BME280;20145;43.118;25.694;2022-09-17T07:43:31;98245.28;;;29.23;51.22
33845;BME280;20145;43.118;25.694;2022-09-17T07:45:58;98242.81;;;29.29;49.83
33845;BME280;20145;43.118;25.694;2022-09-17T07:48:24;98241.16;;;29.28;49.77
33845;BME280;20145;43.118;25.694;2022-09-17T07:50:50;98227.03;;;29.44;48.95
33845;BME280;20145;43.118;25.694;2022-09-17T07:53:16;98240.97;;;29.63;48.98
33845;BME280;20145;43.118;25.694;2022-09-17T07:55:41;98238.13;;;29.56;50.29
33845;BME280;20145;43.118;25.694;2022-09-17T07:58:08;98237.63;;;29.61;50.08
33845;BME280;20145;43.118;25.694;2022-09-17T08:00:33;98224.50;;;29.67;50.69
33845;BME280;20145;43.118;25.694;2022-09-17T08:02:59;98218.50;;;29.73;49.60
33845;BME280;20145;43.118;25.694;2022-09-17T08:05:25;98242.94;;;29.85;50.29
33845;BME280;20145;43.118;25.694;2022-09-17T08:07:52;98234.19;;;29.44;50.27
33845;BME280;20145;43.118;25.694;2022-09-17T08:10:18;98236.16;;;29.42;49.44
33845;BME280;20145;43.118;25.694;2022-09-17T08:12:48;98250.28;;;29.50;49.96
33845;BME280;20145;43.118;25.694;2022-09-17T08:15:15;98241.63;;;29.56;49.14
33845;BME280;20145;43.118;25.694;2022-09-17T08:17:44;98253.09;;;29.57;49.10
33845;BME280;20145;43.118;25.694;2022-09-17T08:20:11;98243.31;;;29.33;48.44
33845;BME280;20145;43.118;25.694;2022-09-17T08:22:37;98262.06;;;29.31;49.29
33845;BME280;20145;43.118;25.694;2022-09-17T08:25:04;98267.56;;;29.38;49.28
33845;BME280;20145;43.118;25.694;2022-09-17T08:27:30;98269.56;;;29.44;48.84
33845;BME280;20145;43.118;25.694;2022-09-17T08:29:56;98268.72;;;29.60;48.52
33845;BME280;20145;43.118;25.694;2022-09-17T08:32:22;98262.72;;;29.83;48.24
33845;BME280;20145;43.118;25.694;2022-09-17T08:34:48;98266.09;;;29.68;48.69
33845;BME280;20145;43.118;25.694;2022-09-17T08:37:13;98261.25;;;29.72;48.33
33845;BME280;20145;43.118;25.694;2022-09-17T08:39:39;98254.28;;;29.54;49.59
33845;BME280;20145;43.118;25.694;2022-09-17T08:44:55;98257.28;;;29.27;50.71
33845;BME280;20145;43.118;25.694;2022-09-17T08:47:44;98264.56;;;29.33;49.42
33845;BME280;20145;43.118;25.694;2022-09-17T08:50:15;98255.78;;;29.49;51.10
33845;BME280;20145;43.118;25.694;2022-09-17T08:55:29;98257.03;;;29.94;49.88
33845;BME280;20145;43.118;25.694;2022-09-17T09:06:43;98233.22;;;30.09;49.17
33845;BME280;20145;43.118;25.694;2022-09-17T09:09:15;98227.84;;;30.25;48.28
33845;BME280;20145;43.118;25.694;2022-09-17T09:11:42;98229.03;;;30.14;48.26
33845;BME280;20145;43.118;25.694;2022-09-17T09:14:12;98224.41;;;30.08;48.75
33845;BME280;20145;43.118;25.694;2022-09-17T09:16:42;98209.84;;;29.96;47.33
33845;BME280;20145;43.118;25.694;2022-09-17T09:19:26;98202.25;;;30.16;46.09
33845;BME280;20145;43.118;25.694;2022-09-17T09:27:40;98206.91;;;30.14;46.15
33845;BME280;20145;43.118;25.694;2022-09-17T09:30:13;98208.09;;;30.11;48.32
33845;BME280;20145;43.118;25.694;2022-09-17T09:33:06;98217.88;;;30.27;42.21
33845;BME280;20145;43.118;25.694;2022-09-17T09:35:40;98207.53;;;30.32;40.44
33845;BME280;20145;43.118;25.694;2022-09-17T09:38:17;98208.44;;;30.48;39.81
33845;BME280;20145;43.118;25.694;2022-09-17T09:41:02;98189.66;;;30.49;40.93
33845;BME280;20145;43.118;25.694;2022-09-17T09:43:50;98208.09;;;30.82;39.20
33845;BME280;20145;43.118;25.694;2022-09-17T09:55:09;98212.94;;;31.62;40.98
33845;BME280;20145;43.118;25.694;2022-09-17T09:57:47;98203.44;;;31.45;35.53
33845;BME280;20145;43.118;25.694;2022-09-17T10:00:23;98207.13;;;31.59;37.12
33845;BME280;20145;43.118;25.694;2022-09-17T10:02:54;98205.94;;;31.61;35.73
33845;BME280;20145;43.118;25.694;2022-09-17T10:05:22;98191.94;;;31.59;35.68
33845;BME280;20145;43.118;25.694;2022-09-17T10:07:48;98200.53;;;31.31;35.43
33845;BME280;20145;43.118;25.694;2022-09-17T10:10:13;98182.50;;;31.33;36.48
33845;BME280;20145;43.118;25.694;2022-09-17T10:12:39;98197.16;;;31.15;36.60
33845;BME280;20145;43.118;25.694;2022-09-17T10:15:30;98198.94;;;31.22;38.09
33845;BME280;20145;43.118;25.694;2022-09-17T10:18:15;98202.63;;;31.21;34.72
33845;BME280;20145;43.118;25.694;2022-09-17T10:20:56;98192.75;;;31.45;33.91
33845;BME280;20145;43.118;25.694;2022-09-17T10:23:24;98197.94;;;31.61;34.35
33845;BME280;20145;43.118;25.694;2022-09-17T10:25:51;98197.47;;;31.72;31.98
33845;BME280;20145;43.118;25.694;2022-09-17T10:28:30;98194.81;;;31.72;31.53
33845;BME280;20145;43.118;25.694;2022-09-17T10:31:07;98190.13;;;31.60;34.69
33845;BME280;20145;43.118;25.694;2022-09-17T10:33:39;98188.50;;;31.36;31.73
33845;BME280;20145;43.118;25.694;2022-09-17T10:36:11;98186.91;;;31.49;32.05
33845;BME280;20145;43.118;25.694;2022-09-17T10:38:43;98188.53;;;31.50;34.03
33845;BME280;20145;43.118;25.694;2022-09-17T10:43:42;98179.19;;;31.69;32.59
33845;BME280;20145;43.118;25.694;2022-09-17T10:46:11;98178.16;;;31.85;32.73
33845;BME280;20145;43.118;25.694;2022-09-17T10:48:44;98188.38;;;31.67;33.49
33845;BME280;20145;43.118;25.694;2022-09-17T10:51:19;98180.44;;;31.59;32.49
33845;BME280;20145;43.118;25.694;2022-09-17T10:56:34;98186.25;;;31.47;33.24
33845;BME280;20145;43.118;25.694;2022-09-17T11:04:34;98189.97;;;31.00;33.33
33845;BME280;20145;43.118;25.694;2022-09-17T11:36:47;98344.47;;;24.34;62.77
33845;BME280;20145;43.118;25.694;2022-09-17T11:39:32;98349.47;;;24.07;63.61
33845;BME280;20145;43.118;25.694;2022-09-17T11:42:01;98356.75;;;23.72;68.63
33845;BME280;20145;43.118;25.694;2022-09-17T11:44:47;98353.63;;;23.67;66.89
33845;BME280;20145;43.118;25.694;2022-09-17T11:47:33;98360.00;;;23.86;69.38
33845;BME280;20145;43.118;25.694;2022-09-17T11:50:06;98356.16;;;23.90;67.05
33845;BME280;20145;43.118;25.694;2022-09-17T11:52:51;98359.63;;;23.90;66.47
33845;BME280;20145;43.118;25.694;2022-09-17T11:55:29;98363.31;;;23.78;66.35
33845;BME280;20145;43.118;25.694;2022-09-17T11:58:50;98378.00;;;23.80;66.94
33845;BME280;20145;43.118;25.694;2022-09-17T12:01:06;98388.13;;;23.64;66.32
33845;BME280;20145;43.118;25.694;2022-09-17T12:03:42;98419.25;;;23.59;66.86
33845;BME280;20145;43.118;25.694;2022-09-17T12:06:19;98453.34;;;23.17;68.42
33845;BME280;20145;43.118;25.694;2022-09-17T12:09:00;98476.78;;;22.86;71.07
33845;BME280;20145;43.118;25.694;2022-09-17T12:11:39;98495.09;;;22.41;75.13
33845;BME280;20145;43.118;25.694;2022-09-17T12:14:50;98486.03;;;21.86;79.38
33845;BME280;20145;43.118;25.694;2022-09-17T12:17:22;98478.41;;;21.09;85.48
33845;BME280;20145;43.118;25.694;2022-09-17T12:20:05;98467.41;;;20.91;88.50
33845;BME280;20145;43.118;25.694;2022-09-17T12:22:36;98465.00;;;20.76;91.20
33845;BME280;20145;43.118;25.694;2022-09-17T12:25:04;98453.38;;;20.54;93.50
33845;BME280;20145;43.118;25.694;2022-09-17T12:30:31;98417.84;;;20.63;96.32
33845;BME280;20145;43.118;25.694;2022-09-17T12:35:46;98369.47;;;20.80;96.65
33845;BME280;20145;43.118;25.694;2022-09-17T12:38:26;98390.19;;;20.96;97.33
33845;BME280;20145;43.118;25.694;2022-09-17T12:41:03;98386.69;;;21.08;96.83
33845;BME280;20145;43.118;25.694;2022-09-17T12:59:15;98362.81;;;21.83;92.12
33845;BME280;20145;43.118;25.694;2022-09-17T13:11:05;98248.41;;;22.25;91.10
33845;BME280;20145;43.118;25.694;2022-09-17T13:13:46;98239.56;;;22.26;93.47
33845;BME280;20145;43.118;25.694;2022-09-17T13:16:24;98232.25;;;22.30;93.11
33845;BME280;20145;43.118;25.694;2022-09-17T13:21:59;98238.78;;;22.58;88.59
33845;BME280;20145;43.118;25.694;2022-09-17T13:24:28;98251.75;;;22.82;89.69
33845;BME280;20145;43.118;25.694;2022-09-17T13:26:59;98252.22;;;22.87;87.96
33845;BME280;20145;43.118;25.694;2022-09-17T13:40:21;98224.81;;;23.22;86.85
33845;BME280;20145;43.118;25.694;2022-09-17T13:42:53;98218.22;;;23.49;86.50
33845;BME280;20145;43.118;25.694;2022-09-17T13:45:21;98192.00;;;23.47;86.75
33845;BME280;20145;43.118;25.694;2022-09-17T13:50:27;98194.88;;;23.86;85.13
33845;BME280;20145;43.118;25.694;2022-09-17T13:52:58;98193.16;;;24.16;83.10
33845;BME280;20145;43.118;25.694;2022-09-17T13:55:38;98205.84;;;24.32;82.91
33845;BME280;20145;43.118;25.694;2022-09-17T13:58:27;98220.78;;;24.21;83.38
33845;BME280;20145;43.118;25.694;2022-09-17T14:13:48;98195.22;;;23.30;85.76
33845;BME280;20145;43.118;25.694;2022-09-17T14:16:44;98190.97;;;23.38;85.42
33845;BME280;20145;43.118;25.694;2022-09-17T14:19:43;98193.31;;;23.53;85.27
33845;BME280;20145;43.118;25.694;2022-09-17T14:22:15;98194.31;;;23.41;86.47
33845;BME280;20145;43.118;25.694;2022-09-17T14:30:04;98178.38;;;23.84;84.68
33845;BME280;20145;43.118;25.694;2022-09-17T14:32:51;98178.44;;;24.03;85.45
33845;BME280;20145;43.118;25.694;2022-09-17T14:35:22;98169.03;;;24.20;84.76
33845;BME280;20145;43.118;25.694;2022-09-17T14:37:52;98162.94;;;24.30;85.11
33845;BME280;20145;43.118;25.694;2022-09-17T14:40:21;98155.19;;;24.28;85.53
33845;BME280;20145;43.118;25.694;2022-09-17T14:42:54;98141.00;;;24.10;85.16
33845;BME280;20145;43.118;25.694;2022-09-17T14:45:39;98161.81;;;24.13;85.15
33845;BME280;20145;43.118;25.694;2022-09-17T14:48:26;98171.78;;;24.09;86.20
33845;BME280;20145;43.118;25.694;2022-09-17T14:51:09;98167.16;;;23.92;86.52
33845;BME280;20145;43.118;25.694;2022-09-17T14:53:35;98167.38;;;23.79;86.18
33845;BME280;20145;43.118;25.694;2022-09-17T14:56:01;98167.22;;;23.71;85.44
33845;BME280;20145;43.118;25.694;2022-09-17T14:58:32;98146.31;;;23.58;85.29
33845;BME280;20145;43.118;25.694;2022-09-17T15:00:59;98139.00;;;23.62;86.03
33845;BME280;20145;43.118;25.694;2022-09-17T15:03:25;98148.84;;;23.59;88.24
33845;BME280;20145;43.118;25.694;2022-09-17T15:05:51;98149.81;;;23.58;88.96
33845;BME280;20145;43.118;25.694;2022-09-17T15:08:22;98139.59;;;23.44;88.81
33845;BME280;20145;43.118;25.694;2022-09-17T15:10:59;98132.75;;;23.32;90.47
33845;BME280;20145;43.118;25.694;2022-09-17T15:15:57;98138.50;;;23.47;91.00
33845;BME280;20145;43.118;25.694;2022-09-17T15:18:41;98113.63;;;23.30;90.77
33845;BME280;20145;43.118;25.694;2022-09-17T15:23:53;98122.69;;;23.16;90.92
33845;BME280;20145;43.118;25.694;2022-09-17T15:26:25;98132.78;;;23.11;92.64
33845;BME280;20145;43.118;25.694;2022-09-17T15:28:53;98114.72;;;22.85;91.45
33845;BME280;20145;43.118;25.694;2022-09-17T15:31:23;98120.53;;;22.89;90.44
33845;BME280;20145;43.118;25.694;2022-09-17T15:33:52;98118.03;;;22.99;91.66
33845;BME280;20145;43.118;25.694;2022-09-17T15:36:23;98115.75;;;22.94;91.08
33845;BME280;20145;43.118;25.694;2022-09-17T15:38:50;98116.38;;;22.98;91.19
33845;BME280;20145;43.118;25.694;2022-09-17T15:41:28;98118.63;;;22.91;90.95
33845;BME280;20145;43.118;25.694;2022-09-17T15:44:12;98102.38;;;22.86;91.63
33845;BME280;20145;43.118;25.694;2022-09-17T15:46:38;98084.50;;;22.80;90.70
33845;BME280;20145;43.118;25.694;2022-09-17T15:49:29;98097.34;;;22.73;92.79
33845;BME280;20145;43.118;25.694;2022-09-17T15:51:54;98078.09;;;22.73;91.78
33845;BME280;20145;43.118;25.694;2022-09-17T15:54:30;98071.31;;;22.70;91.22
33845;BME280;20145;43.118;25.694;2022-09-17T15:57:00;98090.78;;;22.88;90.48
33845;BME280;20145;43.118;25.694;2022-09-17T15:59:29;98065.38;;;22.78;90.56
33845;BME280;20145;43.118;25.694;2022-09-17T16:01:57;98069.44;;;22.82;92.64
33845;BME280;20145;43.118;25.694;2022-09-17T16:04:29;98074.53;;;22.83;92.48
33845;BME280;20145;43.118;25.694;2022-09-17T16:07:23;98063.19;;;22.83;92.10